Hope, Canada
Current Conditions -  °F | °C
As of 1:00 PM on Monday 24 Nov 2014 (Local Time) from CYHE Reporting Station
Light Rain Light Rain  
Wind Chill: 41°   Ceiling: 5000
Heat Index: 45°   Visibility: 9mi
Dew Point: 43°   Wind: 6mph
Humidity: 93%   Direction: 230°SW
Pressure: 30.22"   Gusts: NA
Location:  49.36°N, 121.5°W
Report Text: CYHE 242100Z AUTO 23005KT 9SM -RA BKN050 OVC075 07/06 A3022 RMK PRESFR SLP235
Loading
Personal Weather Stations






























Interactive Weather Map New forecast layout! Learn more

10-Day Weather Forecast

Advertisements
Track Severe Weather on mobile